Time;durP1;ratioP1;P1;durP2;ratioP2;P2;SDS_P1;SDS_P2;PMS_P1;PMS_P2;Temp;Humidity;BMP_temperature;BMP_pressure;BME280_temperature;BME280_humidity;BME280_pressure;Samples;Min_cycle;Max_cycle;Signal;HPM_P1;HPM_P2
2023/08/03 00:01:58;;;;;;;61.53;38.47;;;;;;;20.29;90.29;98915.16;4921214;29;20114;-92
2023/08/03 00:04:24;;;;;;;64.60;39.70;;;;;;;20.27;90.84;98914.78;4937571;29;20290;-90
2023/08/03 00:06:50;;;;;;;58.60;37.93;;;;;;;20.24;90.46;98900.88;4939150;29;20071;-89
2023/08/03 00:09:16;;;;;;;58.77;37.90;;;;;;;20.21;91.11;98899.69;4955575;29;20504;-89
2023/08/03 00:11:42;;;;;;;56.80;34.80;;;;;;;20.14;92.18;98896.88;4938388;29;20047;-89
2023/08/03 00:14:08;;;;;;;64.13;35.07;;;;;;;20.18;91.86;98900.44;4958643;29;21523;-89
2023/08/03 00:16:34;;;;;;;59.53;35.63;;;;;;;20.20;91.32;98898.09;4925805;29;20043;-90
2023/08/03 00:19:00;;;;;;;55.17;32.10;;;;;;;20.17;91.10;98888.56;4926048;29;20374;-89
2023/08/03 00:21:26;;;;;;;51.57;32.23;;;;;;;20.21;90.64;98896.91;4958640;29;20059;-89
2023/08/03 00:23:52;;;;;;;54.73;32.77;;;;;;;20.19;90.61;98896.47;4957779;29;20095;-89
2023/08/03 00:26:18;;;;;;;48.30;31.47;;;;;;;20.12;90.69;98894.47;4940902;29;20086;-88
2023/08/03 00:28:44;;;;;;;58.77;33.80;;;;;;;20.18;90.77;98900.44;4908831;29;20051;-88
2023/08/03 00:31:09;;;;;;;53.93;31.63;;;;;;;20.13;90.66;98909.94;4940393;29;20125;-89
2023/08/03 00:33:35;;;;;;;53.57;32.07;;;;;;;20.11;90.39;98915.06;4909518;29;20047;-89
2023/08/03 00:36:03;;;;;;;47.75;30.52;;;;;;;20.08;90.04;98910.28;4947898;29;20051;-90
2023/08/03 00:38:29;;;;;;;53.75;32.65;;;;;;;20.19;89.79;98921.47;4938851;29;20123;-89
2023/08/03 00:40:54;;;;;;;51.13;32.47;;;;;;;19.98;89.77;98885.25;4921824;29;20138;-91
2023/08/03 00:43:20;;;;;;;48.20;31.50;;;;;;;19.98;90.02;98883.28;4921516;29;20044;-89
2023/08/03 00:45:46;;;;;;;50.80;29.87;;;;;;;20.05;89.63;98902.75;4921403;29;20499;-89
2023/08/03 00:48:13;;;;;;;58.50;30.52;;;;;;;20.04;89.39;98895.63;4948114;29;20051;-89
2023/08/03 00:50:39;;;;;;;;;;;;;;;20.11;89.40;98915.06;4957570;29;20043;-89
2023/08/03 00:53:05;;;;;;;48.30;28.40;;;;;;;19.92;89.62;98882.84;4924040;29;20442;-89
2023/08/03 00:55:31;;;;;;;44.00;27.00;;;;;;;19.95;90.31;98892.38;4953630;28;20073;-89
2023/08/03 00:57:58;;;;;;;47.55;28.70;;;;;;;19.88;90.20;98884.81;4959414;28;20047;-90
2023/08/03 01:00:24;;;;;;;;;;;;;;;20.04;90.14;98906.72;4943999;28;20416;-89
2023/08/03 01:02:51;;;;;;;45.92;28.90;;;;;;;19.90;89.89;98890.78;4927813;28;20065;-89
2023/08/03 01:05:17;;;;;;;59.28;29.48;;;;;;;19.82;90.15;98891.88;4943797;28;20424;-88
2023/08/03 01:07:44;;;;;;;45.60;28.42;;;;;;;19.77;91.79;98880.34;4959107;28;20075;-87
2023/08/03 01:10:10;;;;;;;42.83;28.20;;;;;;;19.85;91.70;98896.66;4943438;28;20042;-88
2023/08/03 01:12:36;;;;;;;43.45;29.33;;;;;;;19.75;91.07;98872.44;4976724;28;20815;-89
2023/08/03 01:15:02;;;;;;;45.67;28.95;;;;;;;19.83;91.14;98898.22;4943472;28;20051;-90
2023/08/03 01:17:32;;;;;;;49.70;29.52;;;;;;;19.84;90.88;98906.19;4974957;28;20049;-89
2023/08/03 01:20:00;;;;;;;58.28;31.10;;;;;;;19.78;90.56;98899.41;4958780;28;20086;-89
2023/08/03 01:22:28;;;;;;;50.42;30.15;;;;;;;19.85;89.76;98927.19;4959094;28;20043;-87
2023/08/03 01:24:54;;;;;;;44.03;28.63;;;;;;;19.80;89.28;98916.47;4964319;28;20039;-89
2023/08/03 01:27:20;;;;;;;49.90;28.77;;;;;;;19.77;88.59;98910.84;4939578;29;20055;-89
2023/08/03 01:29:45;;;;;;;54.17;29.20;;;;;;;19.76;88.86;98923.13;4924707;29;20134;-88
2023/08/03 01:32:14;;;;;;;50.20;28.30;;;;;;;19.71;88.76;98921.53;4940471;29;20141;-91
2023/08/03 01:34:41;;;;;;;45.58;28.25;;;;;;;19.82;88.94;98924.38;4940252;29;20054;-88
2023/08/03 01:37:08;;;;;;;41.75;27.27;;;;;;;19.66;89.37;98914.34;4956823;29;20043;-87
2023/08/03 01:39:34;;;;;;;49.17;27.88;;;;;;;19.71;89.38;98927.88;4939492;29;20129;-89
2023/08/03 01:42:00;;;;;;;40.80;26.27;;;;;;;19.71;88.46;98935.41;4939902;29;20047;-88
2023/08/03 01:44:30;;;;;;;51.80;27.23;;;;;;;19.66;88.13;98930.19;4939433;29;20800;-88
2023/08/03 01:46:58;;;;;;;45.00;27.75;;;;;;;19.73;88.50;98951.63;4923762;29;20572;-89
2023/08/03 01:49:26;;;;;;;43.53;27.20;;;;;;;19.64;89.08;98961.09;4923832;29;20039;-89
2023/08/03 01:51:52;;;;;;;38.85;27.58;;;;;;;19.47;89.53;98928.44;4939866;29;20132;-89
2023/08/03 01:54:19;;;;;;;47.63;28.33;;;;;;;19.51;89.73;98925.69;4956409;28;20154;-88
2023/08/03 01:56:45;;;;;;;57.85;28.20;;;;;;;19.61;89.60;98945.19;4939080;29;20314;-88
2023/08/03 01:59:11;;;;;;;46.03;27.50;;;;;;;19.59;89.42;98941.97;4923867;29;20073;-88
2023/08/03 02:01:38;;;;;;;;;;;;;;;19.71;89.37;98955.59;4924221;29;20039;-88
2023/08/03 02:04:04;;;;;;;39.75;26.42;;;;;;;19.62;89.05;98930.13;4924848;29;19922;-92
2023/08/03 02:06:31;;;;;;;44.10;27.95;;;;;;;19.61;89.17;98930.53;4924778;29;20047;-88
2023/08/03 02:08:57;;;;;;;46.60;27.27;;;;;;;19.52;88.88;98924.50;4924275;29;20098;-88
2023/08/03 02:11:26;;;;;;;47.65;26.98;;;;;;;19.66;88.96;98941.28;4923470;29;20047;-88
2023/08/03 02:13:52;;;;;;;42.00;24.83;;;;;;;19.73;89.19;98959.97;4907447;29;20131;-89
2023/08/03 02:16:18;;;;;;;38.97;25.83;;;;;;;19.64;88.98;98946.44;4922962;29;20291;-89
2023/08/03 02:18:44;;;;;;;39.15;24.38;;;;;;;19.69;88.80;98957.16;4938940;29;20039;-88
2023/08/03 02:21:10;;;;;;;37.83;24.73;;;;;;;19.71;88.18;98960.34;4938677;29;20035;-88
2023/08/03 02:23:36;;;;;;;35.57;25.13;;;;;;;19.70;87.94;98950.41;4938385;29;20456;-89
2023/08/03 02:26:03;;;;;;;42.77;25.20;;;;;;;19.61;87.89;98933.31;4938408;29;20126;-88
2023/08/03 02:28:32;;;;;;;41.70;25.38;;;;;;;19.71;88.65;98952.81;4938128;29;20035;-88
2023/08/03 02:30:58;;;;;;;43.85;24.40;;;;;;;19.83;88.68;98968.38;4922530;29;20488;-89
2023/08/03 02:33:33;;;;;;;41.30;24.13;;;;;;;19.80;88.33;98966.38;4912862;29;20044;-89
2023/08/03 02:35:59;;;;;;;39.60;23.97;;;;;;;19.82;88.35;98963.22;4886901;29;20051;-89
2023/08/03 02:38:25;;;;;;;36.40;23.13;;;;;;;19.77;87.86;98955.22;4919888;29;20342;-89
2023/08/03 02:40:52;;;;;;;37.75;22.88;;;;;;;19.83;88.00;98951.72;4911085;29;20540;-88
2023/08/03 02:43:18;;;;;;;35.17;24.33;;;;;;;19.88;87.95;98953.34;4923280;29;20087;-89
2023/08/03 02:45:44;;;;;;;;;;;;;;;19.96;88.49;98963.31;4923648;29;20043;-89
2023/08/03 02:48:11;;;;;;;39.30;22.98;;;;;;;19.83;88.02;98948.94;4922701;29;19922;-89
2023/08/03 02:50:37;;;;;;;32.72;22.02;;;;;;;19.92;87.81;98946.66;4938696;29;20051;-92
2023/08/03 02:53:08;;;;;;;30.35;22.48;;;;;;;19.91;87.39;98953.38;4923445;29;20421;-88
2023/08/03 02:55:35;;;;;;;31.20;21.25;;;;;;;19.97;86.77;98955.78;4922151;29;20134;-92
2023/08/03 02:58:02;;;;;;;39.33;22.57;;;;;;;20.06;86.93;98962.59;4922599;29;20137;-88
2023/08/03 03:00:30;;;;;;;34.30;22.33;;;;;;;19.98;87.10;98941.53;4906428;29;20051;-88
2023/08/03 03:02:57;;;;;;;38.97;24.33;;;;;;;20.08;86.82;98951.13;4938695;29;20044;-88
2023/08/03 03:05:30;;;;;;;41.50;23.23;;;;;;;20.10;86.49;98952.34;4938852;29;20095;-88
2023/08/03 03:07:57;;;;;;;38.70;22.97;;;;;;;20.17;87.03;98951.59;4938923;29;20043;-89
2023/08/03 03:10:23;;;;;;;35.20;23.48;;;;;;;20.26;86.57;98957.59;4923158;29;20053;-90
2023/08/03 03:12:49;;;;;;;45.20;24.67;;;;;;;20.32;86.91;98952.47;4939729;29;20043;-88
2023/08/03 03:15:15;;;;;;;34.13;22.40;;;;;;;20.44;86.67;98954.13;4939349;29;20062;-88
2023/08/03 03:17:42;;;;;;;39.40;23.30;;;;;;;20.56;85.89;98959.38;4939651;29;20050;-88
2023/08/03 03:20:11;;;;;;;34.17;23.38;;;;;;;20.62;85.41;98963.38;4923286;29;20043;-89
2023/08/03 03:22:37;;;;;;;39.90;24.15;;;;;;;20.63;85.30;98960.22;4939349;29;20047;-88
2023/08/03 03:25:04;;;;;;;39.53;24.05;;;;;;;20.63;85.62;98960.22;4955760;29;20035;-88
2023/08/03 03:27:30;;;;;;;60.45;27.13;;;;;;;20.67;85.23;98971.34;4923453;29;20117;-93
2023/08/03 03:29:56;;;;;;;59.80;27.03;;;;;;;20.58;85.40;98960.59;4939020;29;20490;-89
2023/08/03 03:32:22;;;;;;;56.90;28.67;;;;;;;20.65;84.72;98970.94;4938856;29;20680;-88
2023/08/03 03:34:49;;;;;;;68.75;30.60;;;;;;;20.68;84.81;98984.03;4906580;29;20141;-88
2023/08/03 03:37:19;;;;;;;64.07;31.85;;;;;;;20.62;84.58;98968.94;4907175;29;20055;-88
2023/08/03 03:39:45;;;;;;;77.03;32.50;;;;;;;20.60;84.88;98961.00;4922054;29;20045;-88
2023/08/03 03:42:18;;;;;;;73.32;33.70;;;;;;;20.64;84.64;98981.25;4908594;29;20472;-88
2023/08/03 03:44:44;;;;;;;71.82;30.15;;;;;;;20.67;84.73;98979.69;4922028;29;20456;-89
2023/08/03 03:47:10;;;;;;;74.50;28.35;;;;;;;20.65;84.51;98963.41;4921474;29;20134;-88
2023/08/03 03:49:41;;;;;;;44.67;24.30;;;;;;;20.64;83.93;98959.03;4922639;29;20043;-89
2023/08/03 03:52:07;;;;;;;43.20;24.27;;;;;;;20.70;84.12;98956.69;4938602;29;20523;-89
2023/08/03 03:54:35;;;;;;;43.97;23.42;;;;;;;20.84;84.53;98970.63;4923156;29;20378;-89
2023/08/03 03:57:04;;;;;;;42.72;23.58;;;;;;;20.93;84.60;98975.03;4927604;29;20073;-88
2023/08/03 03:59:32;;;;;;;41.72;22.42;;;;;;;20.90;84.94;98962.72;4907722;29;20036;-88
2023/08/03 04:01:58;;;;;;;40.58;23.48;;;;;;;21.05;85.16;98975.47;4924922;29;20039;-89
2023/08/03 04:04:26;;;;;;;46.58;22.67;;;;;;;21.01;85.93;98957.19;4943736;29;20047;-88
2023/08/03 04:06:52;;;;;;;38.00;22.20;;;;;;;21.03;85.59;98947.28;4940356;29;20046;-90
2023/08/03 04:09:20;;;;;;;37.80;21.95;;;;;;;21.14;85.10;98954.88;4928059;29;20073;-90
2023/08/03 04:11:46;;;;;;;42.70;21.07;;;;;;;21.26;84.49;98963.63;4941406;29;20445;-88
2023/08/03 04:14:12;;;;;;;36.97;19.87;;;;;;;21.31;84.33;98957.69;4943144;29;20301;-88
2023/08/03 04:16:38;;;;;;;29.43;17.90;;;;;;;21.41;83.92;98963.69;4943126;29;20664;-90
2023/08/03 04:19:04;;;;;;;31.07;17.80;;;;;;;21.37;83.36;98952.56;4944893;29;20298;-89
2023/08/03 04:21:30;;;;;;;37.42;19.15;;;;;;;21.57;83.97;98970.47;4912576;29;20306;-90
2023/08/03 04:23:56;;;;;;;45.92;19.33;;;;;;;21.66;83.11;98974.88;4915787;29;20070;-89
2023/08/03 04:26:22;;;;;;;41.17;19.50;;;;;;;21.72;82.74;98967.69;4910910;29;20043;-89
2023/08/03 04:28:48;;;;;;;37.93;18.93;;;;;;;21.70;82.79;98951.41;4933641;29;20039;-89
2023/08/03 04:31:14;;;;;;;28.58;17.63;;;;;;;21.82;82.96;98964.16;4928349;29;20307;-90
2023/08/03 04:33:46;;;;;;;34.22;19.20;;;;;;;21.98;82.62;98970.09;4960298;29;20524;-89
2023/08/03 04:36:12;;;;;;;36.22;19.58;;;;;;;21.89;81.82;98950.22;4945953;29;20050;-87
2023/08/03 04:38:40;;;;;;;32.20;19.63;;;;;;;22.01;82.25;98951.78;4911504;29;20063;-88
2023/08/03 04:41:07;;;;;;;49.95;20.73;;;;;;;22.22;82.27;98971.31;4943845;29;20066;-88
2023/08/03 04:43:37;;;;;;;39.83;19.42;;;;;;;22.18;82.03;98953.78;4926122;29;20051;-87
2023/08/03 04:46:05;;;;;;;45.88;21.98;;;;;;;22.19;82.05;98935.13;4926441;29;20054;-88
2023/08/03 04:48:33;;;;;;;84.30;23.27;;;;;;;22.40;81.50;98953.75;4957755;29;20414;-91
2023/08/03 04:51:02;;;;;;;56.92;22.58;;;;;;;22.55;81.02;98963.69;4939230;29;20101;-89
2023/08/03 04:53:28;;;;;;;41.20;19.50;;;;;;;22.58;80.03;98962.84;4941663;29;20055;-88
2023/08/03 04:55:55;;;;;;;38.00;18.90;;;;;;;22.51;79.57;98935.81;4940453;29;20134;-89
2023/08/03 04:58:20;;;;;;;34.10;18.80;;;;;;;22.56;78.71;98931.84;4924448;29;20501;-92
2023/08/03 05:00:49;;;;;;;32.10;19.10;;;;;;;22.73;78.94;98950.47;4943768;29;20050;-89
2023/08/03 05:03:15;;;;;;;33.08;18.27;;;;;;;22.70;78.34;98937.34;4961976;29;20127;-88
2023/08/03 05:05:42;;;;;;;35.65;17.25;;;;;;;22.86;77.93;98936.88;4960646;29;20125;-90
2023/08/03 05:08:09;;;;;;;41.40;18.77;;;;;;;22.85;78.50;98929.75;4926266;29;20087;-89
2023/08/03 05:10:35;;;;;;;31.85;18.15;;;;;;;22.89;78.41;98933.28;4911767;29;20046;-89
2023/08/03 05:13:01;;;;;;;29.85;17.48;;;;;;;22.98;77.60;98947.63;4929302;29;20106;-88
2023/08/03 05:15:27;;;;;;;28.88;17.10;;;;;;;23.03;76.60;98945.59;4944129;29;20051;-88
2023/08/03 05:17:53;;;;;;;33.20;17.95;;;;;;;23.09;76.98;98936.41;4941364;29;20098;-89
2023/08/03 05:20:19;;;;;;;32.17;19.23;;;;;;;23.13;76.64;98931.59;4926290;29;20051;-89
2023/08/03 05:22:45;;;;;;;38.97;19.27;;;;;;;23.23;77.03;98924.38;4947096;29;20291;-88
2023/08/03 05:25:11;;;;;;;34.58;18.13;;;;;;;23.27;76.45;98933.50;4923844;29;20043;-89
2023/08/03 05:27:38;;;;;;;36.15;18.02;;;;;;;23.35;76.61;98925.91;4946548;29;20103;-93
2023/08/03 05:30:06;;;;;;;42.80;19.30;;;;;;;23.40;75.90;98931.03;4932053;29;20047;-92
2023/08/03 05:32:34;;;;;;;41.40;19.48;;;;;;;23.56;75.95;98950.84;4917607;29;20059;-90
2023/08/03 05:35:00;;;;;;;42.35;18.20;;;;;;;23.65;76.14;98953.19;4932701;29;20055;-93
2023/08/03 05:37:26;;;;;;;30.50;17.90;;;;;;;23.60;74.84;98942.47;4914305;29;20416;-91
2023/08/03 05:39:54;;;;;;;35.33;17.90;;;;;;;23.74;74.02;98950.78;4946991;29;20121;-91
2023/08/03 05:42:20;;;;;;;37.78;18.77;;;;;;;23.80;74.83;98948.31;4916640;29;20110;-91
2023/08/03 05:44:46;;;;;;;28.45;16.58;;;;;;;23.82;75.65;98932.75;4930893;29;20514;-93
2023/08/03 05:47:17;;;;;;;32.60;16.15;;;;;;;23.97;75.99;98938.19;4911941;29;20051;-91
2023/08/03 05:49:43;;;;;;;26.40;15.85;;;;;;;23.96;74.95;98937.41;4928175;29;20107;-92
2023/08/03 05:52:10;;;;;;;43.90;15.60;;;;;;;24.01;75.17;98939.78;4909124;29;20583;-92
2023/08/03 05:54:37;;;;;;;37.20;15.63;;;;;;;23.91;75.29;98923.91;4912959;29;20083;-93
2023/08/03 05:57:04;;;;;;;36.30;15.57;;;;;;;23.82;75.48;98893.66;4909699;29;20039;-92
2023/08/03 05:59:30;;;;;;;40.33;15.38;;;;;;;24.14;74.49;98932.47;4931862;29;20505;-95
2023/08/03 06:01:57;;;;;;;34.28;15.43;;;;;;;24.04;75.03;98908.22;4925189;29;20947;-91
2023/08/03 06:04:24;;;;;;;39.20;15.18;;;;;;;24.06;74.30;98905.81;4915383;29;20066;-91
2023/08/03 06:06:51;;;;;;;30.75;15.07;;;;;;;24.43;74.93;98954.53;4924965;29;20054;-93
2023/08/03 06:09:21;;;;;;;62.03;16.48;;;;;;;24.26;74.00;98921.97;4927563;29;20046;-93
2023/08/03 06:11:48;;;;;;;53.00;16.52;;;;;;;24.23;73.50;98922.78;4921723;29;20101;-91
2023/08/03 06:14:16;;;;;;;36.63;14.80;;;;;;;24.46;74.03;98945.31;4912384;29;20035;-94
2023/08/03 06:16:45;;;;;;;22.95;13.25;;;;;;;24.57;73.23;98957.19;4930623;29;20262;-94
2023/08/03 06:19:11;;;;;;;25.40;14.25;;;;;;;24.70;72.85;98960.25;4949768;29;20043;-92
2023/08/03 06:21:37;;;;;;;;;;;;;;;24.73;72.95;98959.38;4925569;28;20054;-92
2023/08/03 06:24:05;;;;;;;30.65;13.45;;;;;;;24.67;72.26;98947.09;4952405;29;19926;-93
2023/08/03 06:26:33;;;;;;;32.70;13.82;;;;;;;24.60;71.94;98928.41;4929050;29;20058;-95
2023/08/03 06:29:02;;;;;;;33.20;13.85;;;;;;;24.90;71.14;98962.38;4912148;29;20043;-93
2023/08/03 06:31:35;;;;;;;30.65;15.20;;;;;;;24.63;70.89;98920.38;4912730;29;20062;-90
2023/08/03 06:34:11;;;;;;;46.53;17.50;;;;;;;24.73;72.61;98922.25;4914550;29;20043;-96
2023/08/03 06:36:45;;;;;;;39.30;17.95;;;;;;;24.94;71.96;98963.94;4961779;29;20046;-91
2023/08/03 06:39:14;;;;;;;52.47;17.75;;;;;;;24.89;71.70;98939.22;4949685;29;20413;-93
2023/08/03 06:41:40;;;;;;;36.45;15.30;;;;;;;25.01;71.42;98944.28;4945195;29;20043;-93
2023/08/03 06:44:18;;;;;;;31.00;15.60;;;;;;;25.07;71.41;98953.78;4894025;29;20053;-92
2023/08/03 06:46:46;;;;;;;30.67;15.05;;;;;;;25.07;71.42;98930.63;4870995;29;20049;-96
2023/08/03 06:49:13;;;;;;;29.48;15.70;;;;;;;25.17;70.78;98946.50;4892031;29;20055;-91
2023/08/03 06:51:39;;;;;;;32.78;14.68;;;;;;;25.15;71.47;98923.72;4881650;29;20040;-94
2023/08/03 06:54:07;;;;;;;33.47;14.32;;;;;;;25.36;70.75;98953.41;4897528;29;20109;-95
2023/08/03 06:56:36;;;;;;;24.80;13.70;;;;;;;25.39;68.37;98946.97;4863771;29;20068;-91
2023/08/03 06:59:04;;;;;;;44.08;14.43;;;;;;;25.30;68.71;98919.53;4854941;29;20084;-92
2023/08/03 07:01:31;;;;;;;30.40;13.70;;;;;;;25.46;68.63;98934.88;4871975;29;20055;-90
2023/08/03 07:04:04;;;;;;;32.58;13.40;;;;;;;25.31;69.54;98903.53;4887071;29;20056;-92
2023/08/03 07:06:30;;;;;;;27.80;14.55;;;;;;;25.57;69.48;98926.31;4852561;29;20050;-93
2023/08/03 07:08:57;;;;;;;25.27;11.60;;;;;;;25.65;67.37;98942.56;4875499;29;20054;-92
2023/08/03 07:11:41;;;;;;;26.80;12.70;;;;;;;25.70;68.45;98932.91;4892771;29;20096;-95
2023/08/03 07:14:47;;;;;;;33.67;12.77;;;;;;;25.91;67.03;98954.97;4890410;29;20510;-91
2023/08/03 07:17:14;;;;;;;48.92;12.77;;;;;;;25.92;65.96;98941.75;4918378;29;20039;-90
2023/08/03 07:19:41;;;;;;;34.28;12.02;;;;;;;25.98;66.55;98926.84;4940196;29;20047;-90
2023/08/03 07:22:08;;;;;;;;;;;;;;;26.27;65.94;98965.56;4893717;29;20248;-89
2023/08/03 07:24:36;;;;;;;23.02;11.13;;;;;;;26.10;63.63;98935.88;4953622;29;20041;-91
2023/08/03 07:27:14;;;;;;;74.15;13.27;;;;;;;26.18;65.63;98926.09;4915999;29;20043;-93
2023/08/03 07:29:42;;;;;;;18.15;10.85;;;;;;;26.30;64.96;98947.91;4905199;29;20132;-91
2023/08/03 07:32:08;;;;;;;14.30;10.77;;;;;;;26.19;65.65;98919.28;4934946;29;20141;-93
2023/08/03 07:34:34;;;;;;;;;;;;;;;26.56;65.26;98965.09;4925737;29;20047;-91
2023/08/03 07:37:01;;;;;;;19.10;11.15;;;;;;;26.47;63.52;98943.19;4900685;29;19937;-91
2023/08/03 07:39:27;;;;;;;51.55;12.07;;;;;;;26.43;63.51;98929.25;4938146;29;20082;-90
2023/08/03 07:41:53;;;;;;;19.00;11.02;;;;;;;26.52;64.25;98939.91;4911367;29;20086;-90
2023/08/03 07:44:19;;;;;;;22.17;11.10;;;;;;;26.63;63.57;98948.13;4916894;29;20149;-90
2023/08/03 07:46:46;;;;;;;26.15;11.52;;;;;;;26.59;63.57;98933.34;4928819;29;20039;-91
2023/08/03 07:49:13;;;;;;;18.50;10.25;;;;;;;26.74;63.39;98945.88;4904711;29;20047;-91
2023/08/03 07:51:39;;;;;;;75.03;11.80;;;;;;;26.81;63.70;98945.72;4913290;29;20043;-92
2023/08/03 07:54:07;;;;;;;35.33;11.85;;;;;;;26.67;62.77;98915.19;4920330;29;20077;-92
2023/08/03 07:56:33;;;;;;;16.35;10.38;;;;;;;26.94;61.63;98945.88;4914510;29;20051;-91
2023/08/03 07:59:00;;;;;;;27.40;10.50;;;;;;;26.94;61.48;98943.84;4913241;29;20043;-93
2023/08/03 08:01:27;;;;;;;23.70;10.73;;;;;;;27.06;61.19;98950.81;4917333;29;20056;-92
2023/08/03 08:03:53;;;;;;;21.70;10.45;;;;;;;27.03;61.26;98929.25;4899281;29;20110;-92
2023/08/03 08:06:21;;;;;;;28.85;9.90;;;;;;;26.99;60.29;98910.91;4917313;29;20039;-90
2023/08/03 08:08:47;;;;;;;;;;;;;;;27.31;59.65;98958.72;4898312;29;20453;-93
2023/08/03 08:11:16;;;;;;;23.05;10.20;;;;;;;27.39;59.30;98964.97;4917327;29;20203;-91
2023/08/03 08:13:42;;;;;;;16.25;8.93;;;;;;;27.26;59.10;98936.00;4911111;29;20039;-92
2023/08/03 08:16:12;;;;;;;27.33;10.70;;;;;;;27.42;58.82;98952.88;4898612;29;20055;-92
2023/08/03 08:18:42;;;;;;;29.25;10.30;;;;;;;27.41;60.23;98946.44;4916791;29;20063;-91
2023/08/03 08:21:13;;;;;;;28.63;9.43;;;;;;;27.38;58.38;98924.06;4886987;29;20537;-92
2023/08/03 08:23:39;;;;;;;19.63;9.98;;;;;;;27.51;58.33;98922.16;4903202;29;20051;-92
2023/08/03 08:26:08;;;;;;;;;;;;;;;27.71;58.15;98955.78;4897999;29;20044;-92
2023/08/03 08:28:35;;;;;;;22.77;10.43;;;;;;;27.60;57.66;98946.84;4864233;29;19946;-92
2023/08/03 08:31:13;;;;;;;21.58;10.35;;;;;;;27.76;58.10;98951.69;4891641;29;20100;-93
2023/08/03 08:33:40;;;;;;;19.48;9.70;;;;;;;27.65;56.39;98926.66;4848754;29;20074;-92
2023/08/03 08:36:07;;;;;;;15.32;9.65;;;;;;;27.76;56.95;98946.06;4889751;29;20036;-93
2023/08/03 08:38:40;;;;;;;28.73;11.45;;;;;;;27.60;58.02;98944.03;4892936;29;20056;-94
2023/08/03 08:41:06;;;;;;;28.13;10.15;;;;;;;27.59;58.00;98931.22;4875094;29;20052;-91
2023/08/03 08:43:32;;;;;;;23.58;9.95;;;;;;;27.51;59.10;98916.53;4891926;29;20044;-92
2023/08/03 08:46:00;;;;;;;43.45;10.38;;;;;;;27.53;56.54;98938.59;4890690;29;20083;-92
2023/08/03 08:48:27;;;;;;;15.00;9.30;;;;;;;27.49;56.93;98932.25;4891262;29;20186;-91
2023/08/03 08:50:59;;;;;;;18.02;9.07;;;;;;;27.51;58.04;98944.63;4875164;29;20053;-92
2023/08/03 08:53:25;;;;;;;19.77;9.35;;;;;;;27.34;55.90;98938.19;4888339;29;20068;-91
2023/08/03 08:55:51;;;;;;;29.98;10.68;;;;;;;27.39;57.09;98940.50;4908984;29;20552;-91
2023/08/03 08:58:19;;;;;;;;;;;;;;;27.51;56.74;98955.06;4892591;29;20083;-93
2023/08/03 09:00:46;;;;;;;23.30;9.50;;;;;;;27.39;57.41;98918.03;4869182;29;19954;-92
2023/08/03 09:03:16;;;;;;;33.03;9.43;;;;;;;27.39;55.67;98923.66;4892754;29;20147;-92
2023/08/03 09:05:42;;;;;;;19.73;10.32;;;;;;;27.41;56.32;98915.56;4905093;29;20051;-92
2023/08/03 09:08:13;;;;;;;12.70;9.15;;;;;;;27.61;56.76;98928.75;4947812;29;20047;-93
2023/08/03 09:10:55;;;;;;;15.70;9.60;;;;;;;27.75;55.56;98924.78;4932336;29;20177;-92
2023/08/03 09:13:29;;;;;;;12.23;8.65;;;;;;;27.73;55.25;98913.22;4931937;29;20058;-92
2023/08/03 09:15:55;;;;;;;25.38;9.55;;;;;;;27.63;55.20;98906.66;4918089;29;20035;-92
2023/08/03 09:18:22;;;;;;;22.38;10.07;;;;;;;27.90;54.25;98923.25;4916521;29;20083;-92
2023/08/03 09:20:49;;;;;;;18.48;9.55;;;;;;;27.91;54.11;98910.00;4901774;29;20055;-90
2023/08/03 09:23:33;;;;;;;;;;;;;;;28.24;54.29;98936.00;4919340;29;20047;-92
2023/08/03 09:25:59;;;;;;;25.02;11.43;;;;;;;28.16;53.82;98901.69;4935089;29;19922;-91
2023/08/03 09:28:48;;;;;;;28.85;10.90;;;;;;;28.40;53.97;98907.91;4926189;29;20444;-92
2023/08/03 09:31:27;;;;;;;17.38;9.65;;;;;;;28.48;54.10;98905.69;4919696;29;20062;-92
2023/08/03 09:33:56;;;;;;;16.70;9.13;;;;;;;28.73;53.32;98936.69;4936904;29;20079;-93
2023/08/03 09:36:22;;;;;;;17.17;9.60;;;;;;;28.44;53.41;98916.22;4906313;29;20039;-93
2023/08/03 09:38:48;;;;;;;;;;;;;;;28.45;54.04;98943.13;4939681;29;20039;-93
2023/08/03 09:41:32;;;;;;;17.58;10.25;;;;;;;28.32;54.36;98923.38;4949245;29;19929;-91
2023/08/03 09:44:00;;;;;;;28.67;12.40;;;;;;;28.33;54.28;98914.47;4932851;29;20050;-92
2023/08/03 09:46:30;;;;;;;26.95;10.98;;;;;;;28.55;53.27;98928.78;4898806;29;20110;-90
2023/08/03 09:48:58;;;;;;;22.77;11.23;;;;;;;28.42;52.19;98899.81;4958175;29;20039;-93
2023/08/03 09:51:29;;;;;;;21.20;9.77;;;;;;;28.70;52.93;98919.91;4908189;29;20059;-91
2023/08/03 09:54:09;;;;;;;25.15;9.50;;;;;;;28.69;52.61;98893.81;4917826;29;20047;-92
2023/08/03 09:56:37;;;;;;;113.75;12.75;;;;;;;28.79;53.01;98895.53;4937516;29;20026;-93
2023/08/03 09:59:08;;;;;;;17.08;9.25;;;;;;;29.04;52.19;98913.72;4936821;29;20066;-93
2023/08/03 10:01:59;;;;;;;24.10;10.15;;;;;;;28.87;52.17;98904.53;4940118;29;20051;-92
2023/08/03 10:04:34;;;;;;;19.92;10.45;;;;;;;28.93;52.28;98932.91;4934623;29;20126;-92
2023/08/03 10:07:08;;;;;;;14.95;9.15;;;;;;;28.88;51.73;98941.91;4929513;29;20041;-92
2023/08/03 10:09:44;;;;;;;13.35;9.10;;;;;;;28.83;52.47;98934.03;4934500;29;20047;-92
2023/08/03 10:12:40;;;;;;;17.50;8.93;;;;;;;29.04;52.30;98933.44;4954711;29;20062;-92
2023/08/03 10:15:10;;;;;;;25.67;9.27;;;;;;;29.12;52.02;98909.44;4911776;29;20205;-92
2023/08/03 10:17:40;;;;;;;17.27;8.88;;;;;;;29.30;49.84;98908.09;4943626;29;20047;-92
2023/08/03 10:20:09;;;;;;;131.38;11.90;;;;;;;29.60;50.69;98924.44;4929041;29;20061;-91
2023/08/03 10:22:37;;;;;;;20.67;9.48;;;;;;;29.65;49.36;98912.63;4923320;29;20047;-91
2023/08/03 10:25:20;;;;;;;26.58;9.73;;;;;;;29.65;48.77;98926.69;4919431;29;20104;-91
2023/08/03 10:28:34;;;;;;;32.17;10.38;;;;;;;29.49;48.86;98938.06;4937816;29;20102;-92
2023/08/03 10:31:28;;;;;;;28.00;9.32;;;;;;;29.21;50.68;98931.31;4973562;29;20051;-93
2023/08/03 10:34:06;;;;;;;32.10;9.35;;;;;;;29.03;50.93;98943.09;4967743;23;20101;-93
2023/08/03 10:36:38;;;;;;;16.92;8.65;;;;;;;28.87;50.32;98935.47;4919535;29;20035;-94
2023/08/03 10:39:41;;;;;;;46.75;10.48;;;;;;;28.81;50.62;98906.34;4915803;29;20044;-93
2023/08/03 10:42:29;;;;;;;20.58;8.85;;;;;;;29.24;51.21;98931.19;4862948;29;20051;-93
2023/08/03 10:45:37;;;;;;;18.30;8.75;;;;;;;29.35;50.27;98941.34;4902822;29;20139;-91
2023/08/03 10:48:30;;;;;;;15.38;8.95;;;;;;;29.05;50.28;98912.50;4809722;29;20061;-92
2023/08/03 10:50:59;;;;;;;25.77;9.13;;;;;;;29.12;50.43;98911.47;4836308;29;20048;-92
2023/08/03 10:53:28;;;;;;;14.73;8.88;;;;;;;29.26;50.63;98934.34;4862129;29;20031;-92
2023/08/03 10:56:10;;;;;;;12.25;8.07;;;;;;;29.20;51.41;98913.59;4866613;29;20037;-92
2023/08/03 10:58:44;;;;;;;21.40;8.30;;;;;;;29.46;51.69;98931.28;4891249;29;20057;-92
2023/08/03 11:01:45;;;;;;;38.08;14.77;;;;;;;29.55;49.95;98910.91;4896467;29;20056;-96
2023/08/03 11:04:31;;;;;;;21.65;9.07;;;;;;;30.07;49.66;98920.88;4874061;29;20051;-91
2023/08/03 11:06:59;;;;;;;17.03;7.87;;;;;;;30.23;47.63;98905.06;4898903;29;20048;-94
2023/08/03 11:09:25;;;;;;;18.52;7.78;;;;;;;29.95;45.55;98883.03;4900675;29;20157;-91
2023/08/03 11:11:54;;;;;;;17.23;7.78;;;;;;;29.75;46.30;98907.88;4913969;29;20157;-90
2023/08/03 11:14:21;;;;;;;32.35;7.47;;;;;;;29.46;46.49;98917.22;4932958;29;20047;-91
2023/08/03 11:16:48;;;;;;;10.45;8.10;;;;;;;29.30;47.80;98894.81;4962670;29;20493;-90
2023/08/03 11:19:14;;;;;;;10.10;8.18;;;;;;;29.35;49.06;98913.19;4956952;29;20074;-89
2023/08/03 11:21:43;;;;;;;18.35;7.78;;;;;;;29.35;50.10;98910.38;4956768;29;20043;-90
2023/08/03 11:24:10;;;;;;;11.32;8.02;;;;;;;29.48;49.54;98923.19;4954691;29;20039;-92
2023/08/03 11:26:37;;;;;;;18.90;8.63;;;;;;;29.58;50.21;98904.38;4920053;29;20036;-88
2023/08/03 11:29:06;;;;;;;9.77;8.52;;;;;;;29.77;50.15;98910.22;4928897;29;20532;-89
2023/08/03 11:31:33;;;;;;;21.00;9.65;;;;;;;29.60;49.26;98899.09;4920204;29;20416;-87